sensor_id;sensor_type;location;lat;lon;timestamp;temperature;humidity
18281;DHT22;9266;51.132;17.062;2023-08-31T00:01:13;16.00;1.00
18281;DHT22;9266;51.132;17.062;2023-08-31T00:03:40;15.10;99.90
18281;DHT22;9266;51.132;17.062;2023-08-31T00:06:07;15.10;99.90
18281;DHT22;9266;51.132;17.062;2023-08-31T00:08:34;15.00;99.90
18281;DHT22;9266;51.132;17.062;2023-08-31T00:11:01;15.00;1.00
18281;DHT22;9266;51.132;17.062;2023-08-31T00:13:28;15.00;1.00
18281;DHT22;9266;51.132;17.062;2023-08-31T00:15:57;15.00;1.00
18281;DHT22;9266;51.132;17.062;2023-08-31T00:18:25;15.10;1.00
18281;DHT22;9266;51.132;17.062;2023-08-31T00:20:52;15.10;1.00
18281;DHT22;9266;51.132;17.062;2023-08-31T00:23:19;15.10;99.90
18281;DHT22;9266;51.132;17.062;2023-08-31T00:25:47;15.10;1.00
18281;DHT22;9266;51.132;17.062;2023-08-31T00:28:14;15.10;1.00
18281;DHT22;9266;51.132;17.062;2023-08-31T00:30:44;15.10;1.00
18281;DHT22;9266;51.132;17.062;2023-08-31T00:33:13;15.10;1.00
18281;DHT22;9266;51.132;17.062;2023-08-31T00:35:40;15.10;1.00
18281;DHT22;9266;51.132;17.062;2023-08-31T00:38:12;15.20;1.00
18281;DHT22;9266;51.132;17.062;2023-08-31T00:40:39;15.20;1.00
18281;DHT22;9266;51.132;17.062;2023-08-31T00:43:08;15.20;1.00
18281;DHT22;9266;51.132;17.062;2023-08-31T00:45:35;15.20;1.00
18281;DHT22;9266;51.132;17.062;2023-08-31T00:48:02;15.20;1.00
18281;DHT22;9266;51.132;17.062;2023-08-31T00:50:31;15.20;1.00
18281;DHT22;9266;51.132;17.062;2023-08-31T00:52:58;15.10;1.00
18281;DHT22;9266;51.132;17.062;2023-08-31T00:55:25;15.10;62.40
18281;DHT22;9266;51.132;17.062;2023-08-31T00:57:52;15.20;21.20
18281;DHT22;9266;51.132;17.062;2023-08-31T01:00:21;15.30;1.00
18281;DHT22;9266;51.132;17.062;2023-08-31T01:02:57;15.20;1.00
18281;DHT22;9266;51.132;17.062;2023-08-31T01:05:37;15.10;1.00
18281;DHT22;9266;51.132;17.062;2023-08-31T01:08:14;14.90;99.90
18281;DHT22;9266;51.132;17.062;2023-08-31T01:10:55;14.80;1.00
18281;DHT22;9266;51.132;17.062;2023-08-31T01:13:24;14.70;1.00
18281;DHT22;9266;51.132;17.062;2023-08-31T01:15:54;14.60;1.00
18281;DHT22;9266;51.132;17.062;2023-08-31T01:18:23;14.50;1.80
18281;DHT22;9266;51.132;17.062;2023-08-31T01:21:00;14.40;99.90
18281;DHT22;9266;51.132;17.062;2023-08-31T01:26:07;14.40;99.90
18281;DHT22;9266;51.132;17.062;2023-08-31T01:28:35;14.40;99.90
18281;DHT22;9266;51.132;17.062;2023-08-31T01:31:04;14.40;92.50
18281;DHT22;9266;51.132;17.062;2023-08-31T01:33:31;14.40;1.00
18281;DHT22;9266;51.132;17.062;2023-08-31T01:36:00;14.40;1.00
18281;DHT22;9266;51.132;17.062;2023-08-31T01:38:31;14.40;1.00
18281;DHT22;9266;51.132;17.062;2023-08-31T01:41:03;14.30;1.00
18281;DHT22;9266;51.132;17.062;2023-08-31T01:43:34;14.30;1.00
18281;DHT22;9266;51.132;17.062;2023-08-31T01:46:01;14.30;1.00
18281;DHT22;9266;51.132;17.062;2023-08-31T01:48:29;14.30;1.00
18281;DHT22;9266;51.132;17.062;2023-08-31T01:50:56;14.30;1.00
18281;DHT22;9266;51.132;17.062;2023-08-31T01:53:23;14.40;1.00
18281;DHT22;9266;51.132;17.062;2023-08-31T01:55:51;14.40;1.00
18281;DHT22;9266;51.132;17.062;2023-08-31T01:58:18;14.50;1.00
18281;DHT22;9266;51.132;17.062;2023-08-31T02:00:46;14.50;99.90
18281;DHT22;9266;51.132;17.062;2023-08-31T02:03:13;14.60;99.90
18281;DHT22;9266;51.132;17.062;2023-08-31T02:05:40;14.70;25.60
18281;DHT22;9266;51.132;17.062;2023-08-31T02:08:07;14.70;1.00
18281;DHT22;9266;51.132;17.062;2023-08-31T02:10:34;14.80;1.00
18281;DHT22;9266;51.132;17.062;2023-08-31T02:13:01;14.80;99.90
18281;DHT22;9266;51.132;17.062;2023-08-31T02:15:28;14.70;1.00
18281;DHT22;9266;51.132;17.062;2023-08-31T02:17:57;14.70;1.00
18281;DHT22;9266;51.132;17.062;2023-08-31T02:20:24;14.50;1.00
18281;DHT22;9266;51.132;17.062;2023-08-31T02:22:52;14.40;62.10
18281;DHT22;9266;51.132;17.062;2023-08-31T02:25:19;14.50;99.90
18281;DHT22;9266;51.132;17.062;2023-08-31T02:27:46;14.50;99.90
18281;DHT22;9266;51.132;17.062;2023-08-31T02:30:13;14.60;99.90
18281;DHT22;9266;51.132;17.062;2023-08-31T02:32:40;14.50;38.40
18281;DHT22;9266;51.132;17.062;2023-08-31T02:35:09;14.50;14.60
18281;DHT22;9266;51.132;17.062;2023-08-31T02:37:37;14.30;99.90
18281;DHT22;9266;51.132;17.062;2023-08-31T02:40:04;14.30;99.90
18281;DHT22;9266;51.132;17.062;2023-08-31T02:42:32;14.30;99.90
18281;DHT22;9266;51.132;17.062;2023-08-31T02:44:59;14.30;99.90
18281;DHT22;9266;51.132;17.062;2023-08-31T02:47:26;14.20;99.90
18281;DHT22;9266;51.132;17.062;2023-08-31T02:49:53;14.10;99.90
18281;DHT22;9266;51.132;17.062;2023-08-31T02:52:21;14.10;99.90
18281;DHT22;9266;51.132;17.062;2023-08-31T02:54:48;14.10;99.90
18281;DHT22;9266;51.132;17.062;2023-08-31T02:57:15;14.10;99.90
18281;DHT22;9266;51.132;17.062;2023-08-31T02:59:45;13.30;99.90
18281;DHT22;9266;51.132;17.062;2023-08-31T03:02:12;13.90;99.90
18281;DHT22;9266;51.132;17.062;2023-08-31T03:04:39;13.80;99.90
18281;DHT22;9266;51.132;17.062;2023-08-31T03:07:06;13.90;99.90
18281;DHT22;9266;51.132;17.062;2023-08-31T03:09:34;13.90;99.90
18281;DHT22;9266;51.132;17.062;2023-08-31T03:12:03;13.90;99.90
18281;DHT22;9266;51.132;17.062;2023-08-31T03:14:30;13.80;99.90
18281;DHT22;9266;51.132;17.062;2023-08-31T03:16:58;13.70;99.90
18281;DHT22;9266;51.132;17.062;2023-08-31T03:19:25;13.60;99.90
18281;DHT22;9266;51.132;17.062;2023-08-31T03:21:52;13.60;99.90
18281;DHT22;9266;51.132;17.062;2023-08-31T03:24:19;13.60;99.90
18281;DHT22;9266;51.132;17.062;2023-08-31T03:26:47;13.50;99.90
18281;DHT22;9266;51.132;17.062;2023-08-31T03:29:14;13.50;99.90
18281;DHT22;9266;51.132;17.062;2023-08-31T03:31:41;13.60;99.90
18281;DHT22;9266;51.132;17.062;2023-08-31T03:34:08;13.50;99.90
18281;DHT22;9266;51.132;17.062;2023-08-31T03:36:35;13.50;99.90
18281;DHT22;9266;51.132;17.062;2023-08-31T03:39:02;13.40;99.90
18281;DHT22;9266;51.132;17.062;2023-08-31T03:41:29;13.40;99.90
18281;DHT22;9266;51.132;17.062;2023-08-31T03:43:57;13.40;99.90
18281;DHT22;9266;51.132;17.062;2023-08-31T03:46:25;13.50;99.90
18281;DHT22;9266;51.132;17.062;2023-08-31T03:48:52;13.40;99.90
18281;DHT22;9266;51.132;17.062;2023-08-31T03:51:19;13.40;99.90
18281;DHT22;9266;51.132;17.062;2023-08-31T03:53:46;13.40;99.90
18281;DHT22;9266;51.132;17.062;2023-08-31T03:56:13;13.40;99.90
18281;DHT22;9266;51.132;17.062;2023-08-31T03:58:40;13.50;99.90
18281;DHT22;9266;51.132;17.062;2023-08-31T04:01:08;13.50;99.90
18281;DHT22;9266;51.132;17.062;2023-08-31T04:03:36;13.50;99.90
18281;DHT22;9266;51.132;17.062;2023-08-31T04:06:03;13.50;99.90
18281;DHT22;9266;51.132;17.062;2023-08-31T04:08:30;13.40;99.90
18281;DHT22;9266;51.132;17.062;2023-08-31T04:10:57;13.40;99.90
18281;DHT22;9266;51.132;17.062;2023-08-31T04:13:24;13.40;99.90
18281;DHT22;9266;51.132;17.062;2023-08-31T04:15:52;13.40;99.90
18281;DHT22;9266;51.132;17.062;2023-08-31T04:18:21;13.40;99.90
18281;DHT22;9266;51.132;17.062;2023-08-31T04:20:49;13.50;99.90
18281;DHT22;9266;51.132;17.062;2023-08-31T04:23:17;13.50;99.90
18281;DHT22;9266;51.132;17.062;2023-08-31T04:25:44;13.60;99.90
18281;DHT22;9266;51.132;17.062;2023-08-31T04:28:11;13.60;99.90
18281;DHT22;9266;51.132;17.062;2023-08-31T04:30:39;13.70;99.90
18281;DHT22;9266;51.132;17.062;2023-08-31T04:33:06;13.70;99.90
18281;DHT22;9266;51.132;17.062;2023-08-31T04:35:35;13.90;99.90
18281;DHT22;9266;51.132;17.062;2023-08-31T04:38:02;14.00;99.90
18281;DHT22;9266;51.132;17.062;2023-08-31T04:40:29;14.00;99.90
18281;DHT22;9266;51.132;17.062;2023-08-31T04:42:56;14.10;99.90
18281;DHT22;9266;51.132;17.062;2023-08-31T04:45:23;14.30;99.90
18281;DHT22;9266;51.132;17.062;2023-08-31T04:47:50;14.30;99.90
18281;DHT22;9266;51.132;17.062;2023-08-31T04:50:17;14.30;99.90
18281;DHT22;9266;51.132;17.062;2023-08-31T04:52:46;14.40;99.90
18281;DHT22;9266;51.132;17.062;2023-08-31T04:55:13;14.40;99.90
18281;DHT22;9266;51.132;17.062;2023-08-31T04:57:40;14.50;99.90
18281;DHT22;9266;51.132;17.062;2023-08-31T05:00:07;14.50;99.90
18281;DHT22;9266;51.132;17.062;2023-08-31T05:02:36;14.50;99.90
18281;DHT22;9266;51.132;17.062;2023-08-31T05:05:03;14.60;99.90
18281;DHT22;9266;51.132;17.062;2023-08-31T05:07:31;14.70;99.90
18281;DHT22;9266;51.132;17.062;2023-08-31T05:09:59;14.90;99.90
18281;DHT22;9266;51.132;17.062;2023-08-31T05:12:26;15.00;99.90
18281;DHT22;9266;51.132;17.062;2023-08-31T05:14:53;15.10;99.90
18281;DHT22;9266;51.132;17.062;2023-08-31T05:17:21;15.40;99.90
18281;DHT22;9266;51.132;17.062;2023-08-31T05:19:48;15.50;99.90
18281;DHT22;9266;51.132;17.062;2023-08-31T05:22:16;15.60;99.90
18281;DHT22;9266;51.132;17.062;2023-08-31T05:24:43;15.80;99.90
18281;DHT22;9266;51.132;17.062;2023-08-31T05:27:11;15.90;99.90
18281;DHT22;9266;51.132;17.062;2023-08-31T05:29:38;16.10;99.90
18281;DHT22;9266;51.132;17.062;2023-08-31T05:32:06;16.50;99.90
18281;DHT22;9266;51.132;17.062;2023-08-31T05:34:33;16.70;99.90
18281;DHT22;9266;51.132;17.062;2023-08-31T05:37:04;16.80;99.90
18281;DHT22;9266;51.132;17.062;2023-08-31T05:39:32;17.00;99.90
18281;DHT22;9266;51.132;17.062;2023-08-31T05:41:59;17.20;99.90
18281;DHT22;9266;51.132;17.062;2023-08-31T05:44:27;17.30;99.90
18281;DHT22;9266;51.132;17.062;2023-08-31T05:46:54;17.40;1.00
18281;DHT22;9266;51.132;17.062;2023-08-31T05:49:21;17.40;99.90
18281;DHT22;9266;51.132;17.062;2023-08-31T05:51:49;17.50;1.00
18281;DHT22;9266;51.132;17.062;2023-08-31T05:54:16;17.40;1.00
18281;DHT22;9266;51.132;17.062;2023-08-31T05:56:43;17.30;99.90
18281;DHT22;9266;51.132;17.062;2023-08-31T05:59:10;17.40;99.90
18281;DHT22;9266;51.132;17.062;2023-08-31T06:01:38;17.50;99.90
18281;DHT22;9266;51.132;17.062;2023-08-31T06:04:05;17.60;1.00
18281;DHT22;9266;51.132;17.062;2023-08-31T06:06:32;17.60;1.00
18281;DHT22;9266;51.132;17.062;2023-08-31T06:08:59;17.70;1.00
18281;DHT22;9266;51.132;17.062;2023-08-31T06:11:26;17.60;1.00
18281;DHT22;9266;51.132;17.062;2023-08-31T06:13:53;17.60;99.90
18281;DHT22;9266;51.132;17.062;2023-08-31T06:16:20;17.50;1.00
18281;DHT22;9266;51.132;17.062;2023-08-31T06:18:49;17.60;1.00
18281;DHT22;9266;51.132;17.062;2023-08-31T06:21:17;17.70;1.00
18281;DHT22;9266;51.132;17.062;2023-08-31T06:23:44;18.00;99.90
18281;DHT22;9266;51.132;17.062;2023-08-31T06:26:10;18.20;1.00
18281;DHT22;9266;51.132;17.062;2023-08-31T06:28:37;18.80;43.60
18281;DHT22;9266;51.132;17.062;2023-08-31T06:31:04;19.50;99.90
18281;DHT22;9266;51.132;17.062;2023-08-31T06:33:31;20.40;1.00
18281;DHT22;9266;51.132;17.062;2023-08-31T06:36:00;21.20;1.00
18281;DHT22;9266;51.132;17.062;2023-08-31T06:38:27;21.80;99.90
18281;DHT22;9266;51.132;17.062;2023-08-31T06:40:54;22.40;1.00
18281;DHT22;9266;51.132;17.062;2023-08-31T06:43:24;22.40;1.00
18281;DHT22;9266;51.132;17.062;2023-08-31T06:45:52;22.90;1.00
18281;DHT22;9266;51.132;17.062;2023-08-31T06:48:19;22.80;1.00
18281;DHT22;9266;51.132;17.062;2023-08-31T06:50:47;22.70;1.00
18281;DHT22;9266;51.132;17.062;2023-08-31T06:53:15;23.50;1.00
18281;DHT22;9266;51.132;17.062;2023-08-31T06:55:42;23.70;1.00
18281;DHT22;9266;51.132;17.062;2023-08-31T06:58:09;23.60;1.00
18281;DHT22;9266;51.132;17.062;2023-08-31T07:00:36;24.20;1.00
18281;DHT22;9266;51.132;17.062;2023-08-31T07:03:04;24.00;99.90
18281;DHT22;9266;51.132;17.062;2023-08-31T07:05:33;23.80;99.90
18281;DHT22;9266;51.132;17.062;2023-08-31T07:08:02;24.10;99.90
18281;DHT22;9266;51.132;17.062;2023-08-31T07:10:30;24.00;99.90
18281;DHT22;9266;51.132;17.062;2023-08-31T07:12:57;24.70;99.90
18281;DHT22;9266;51.132;17.062;2023-08-31T07:15:24;24.90;99.90
18281;DHT22;9266;51.132;17.062;2023-08-31T07:17:52;24.90;99.90
18281;DHT22;9266;51.132;17.062;2023-08-31T07:20:18;25.20;99.90
18281;DHT22;9266;51.132;17.062;2023-08-31T07:22:45;25.40;99.90
18281;DHT22;9266;51.132;17.062;2023-08-31T07:25:12;24.70;99.90
18281;DHT22;9266;51.132;17.062;2023-08-31T07:27:41;24.80;99.80
18281;DHT22;9266;51.132;17.062;2023-08-31T07:30:08;25.10;95.50
18281;DHT22;9266;51.132;17.062;2023-08-31T07:32:36;25.40;78.20
18281;DHT22;9266;51.132;17.062;2023-08-31T07:35:03;25.30;36.80
18281;DHT22;9266;51.132;17.062;2023-08-31T07:37:31;24.20;75.10
18281;DHT22;9266;51.132;17.062;2023-08-31T07:39:58;23.10;99.90
18281;DHT22;9266;51.132;17.062;2023-08-31T07:42:24;22.70;99.90
18281;DHT22;9266;51.132;17.062;2023-08-31T07:44:53;22.10;99.90
18281;DHT22;9266;51.132;17.062;2023-08-31T07:47:20;21.50;99.90
18281;DHT22;9266;51.132;17.062;2023-08-31T07:49:47;21.40;99.90
18281;DHT22;9266;51.132;17.062;2023-08-31T07:52:14;21.80;99.90
18281;DHT22;9266;51.132;17.062;2023-08-31T07:54:41;22.00;99.90
18281;DHT22;9266;51.132;17.062;2023-08-31T07:57:08;22.40;99.90
18281;DHT22;9266;51.132;17.062;2023-08-31T07:59:35;22.90;99.90
18281;DHT22;9266;51.132;17.062;2023-08-31T08:02:06;23.10;99.90
18281;DHT22;9266;51.132;17.062;2023-08-31T08:04:33;22.40;99.90
18281;DHT22;9266;51.132;17.062;2023-08-31T08:07:00;22.60;99.90
18281;DHT22;9266;51.132;17.062;2023-08-31T08:09:27;22.10;99.90
18281;DHT22;9266;51.132;17.062;2023-08-31T08:11:55;21.70;99.90
18281;DHT22;9266;51.132;17.062;2023-08-31T08:14:22;21.30;99.90
18281;DHT22;9266;51.132;17.062;2023-08-31T08:16:49;20.90;1.00
18281;DHT22;9266;51.132;17.062;2023-08-31T08:19:22;20.80;1.00
18281;DHT22;9266;51.132;17.062;2023-08-31T08:21:49;20.90;1.00
18281;DHT22;9266;51.132;17.062;2023-08-31T08:24:16;21.00;1.00
18281;DHT22;9266;51.132;17.062;2023-08-31T08:26:43;20.60;1.00
18281;DHT22;9266;51.132;17.062;2023-08-31T08:29:10;20.40;1.00
18281;DHT22;9266;51.132;17.062;2023-08-31T08:31:37;20.40;1.00
18281;DHT22;9266;51.132;17.062;2023-08-31T08:34:04;20.10;1.00
18281;DHT22;9266;51.132;17.062;2023-08-31T08:36:33;19.70;77.30
18281;DHT22;9266;51.132;17.062;2023-08-31T08:39:00;19.60;95.00
18281;DHT22;9266;51.132;17.062;2023-08-31T08:41:29;19.50;99.90
18281;DHT22;9266;51.132;17.062;2023-08-31T08:44:00;19.60;99.90
18281;DHT22;9266;51.132;17.062;2023-08-31T08:46:30;19.60;99.90
18281;DHT22;9266;51.132;17.062;2023-08-31T08:48:58;19.50;99.90
18281;DHT22;9266;51.132;17.062;2023-08-31T08:51:26;19.10;1.00
18281;DHT22;9266;51.132;17.062;2023-08-31T08:53:55;18.70;1.00
18281;DHT22;9266;51.132;17.062;2023-08-31T08:56:23;18.10;1.00
18281;DHT22;9266;51.132;17.062;2023-08-31T08:58:50;17.80;99.90
18281;DHT22;9266;51.132;17.062;2023-08-31T09:01:17;17.50;99.90
18281;DHT22;9266;51.132;17.062;2023-08-31T09:03:48;17.30;1.00
18281;DHT22;9266;51.132;17.062;2023-08-31T09:06:15;17.20;1.00
18281;DHT22;9266;51.132;17.062;2023-08-31T09:08:42;17.30;1.00
18281;DHT22;9266;51.132;17.062;2023-08-31T09:11:19;17.50;1.00
18281;DHT22;9266;51.132;17.062;2023-08-31T09:13:48;17.60;1.00
18281;DHT22;9266;51.132;17.062;2023-08-31T09:16:24;17.60;1.00
18281;DHT22;9266;51.132;17.062;2023-08-31T09:18:52;17.30;1.00
18281;DHT22;9266;51.132;17.062;2023-08-31T09:21:19;17.20;1.00
18281;DHT22;9266;51.132;17.062;2023-08-31T09:23:54;17.10;1.00
18281;DHT22;9266;51.132;17.062;2023-08-31T09:26:23;17.00;1.00
18281;DHT22;9266;51.132;17.062;2023-08-31T09:28:51;16.80;1.00
18281;DHT22;9266;51.132;17.062;2023-08-31T09:31:18;15.70;99.90
18281;DHT22;9266;51.132;17.062;2023-08-31T09:33:50;16.60;1.00
18281;DHT22;9266;51.132;17.062;2023-08-31T09:36:17;16.50;1.00
18281;DHT22;9266;51.132;17.062;2023-08-31T09:38:45;16.60;1.00
18281;DHT22;9266;51.132;17.062;2023-08-31T09:41:12;16.10;1.00
18281;DHT22;9266;51.132;17.062;2023-08-31T09:43:42;16.40;1.00
18281;DHT22;9266;51.132;17.062;2023-08-31T09:46:09;16.30;1.00
18281;DHT22;9266;51.132;17.062;2023-08-31T09:48:37;16.10;1.00
18281;DHT22;9266;51.132;17.062;2023-08-31T09:51:07;15.90;99.90
18281;DHT22;9266;51.132;17.062;2023-08-31T09:53:36;16.60;1.00
18281;DHT22;9266;51.132;17.062;2023-08-31T09:56:05;15.40;99.90
18281;DHT22;9266;51.132;17.062;2023-08-31T09:58:32;15.20;1.00
18281;DHT22;9266;51.132;17.062;2023-08-31T10:01:01;15.10;1.00
18281;DHT22;9266;51.132;17.062;2023-08-31T10:03:29;15.10;1.00
18281;DHT22;9266;51.132;17.062;2023-08-31T10:05:56;15.00;99.90
18281;DHT22;9266;51.132;17.062;2023-08-31T10:08:24;15.00;1.00
18281;DHT22;9266;51.132;17.062;2023-08-31T10:10:54;15.10;1.00
18281;DHT22;9266;51.132;17.062;2023-08-31T10:13:21;15.10;1.00
18281;DHT22;9266;51.132;17.062;2023-08-31T10:15:49;15.30;1.00
18281;DHT22;9266;51.132;17.062;2023-08-31T10:18:18;15.50;1.00
18281;DHT22;9266;51.132;17.062;2023-08-31T10:20:45;17.00;1.00
18281;DHT22;9266;51.132;17.062;2023-08-31T10:23:13;15.50;99.90
18281;DHT22;9266;51.132;17.062;2023-08-31T10:26:02;15.50;99.90
18281;DHT22;9266;51.132;17.062;2023-08-31T10:28:30;15.50;99.90
18281;DHT22;9266;51.132;17.062;2023-08-31T10:31:06;15.60;23.70
18281;DHT22;9266;51.132;17.062;2023-08-31T10:33:39;15.60;28.50
18281;DHT22;9266;51.132;17.062;2023-08-31T10:36:10;15.60;1.00
18281;DHT22;9266;51.132;17.062;2023-08-31T10:38:37;15.70;1.00
18281;DHT22;9266;51.132;17.062;2023-08-31T10:41:21;15.80;67.00
18281;DHT22;9266;51.132;17.062;2023-08-31T10:43:51;16.00;1.00
18281;DHT22;9266;51.132;17.062;2023-08-31T10:46:26;16.10;99.90
18281;DHT22;9266;51.132;17.062;2023-08-31T10:48:56;16.40;99.90
18281;DHT22;9266;51.132;17.062;2023-08-31T10:51:28;16.80;1.00
18281;DHT22;9266;51.132;17.062;2023-08-31T10:54:07;17.10;99.90
18281;DHT22;9266;51.132;17.062;2023-08-31T10:59:21;17.80;1.00
18281;DHT22;9266;51.132;17.062;2023-08-31T11:01:54;18.20;1.00
18281;DHT22;9266;51.132;17.062;2023-08-31T11:04:24;18.10;1.00
18281;DHT22;9266;51.132;17.062;2023-08-31T11:07:13;18.50;1.00
18281;DHT22;9266;51.132;17.062;2023-08-31T11:09:41;18.70;1.00
18281;DHT22;9266;51.132;17.062;2023-08-31T11:12:08;18.90;99.90
18281;DHT22;9266;51.132;17.062;2023-08-31T11:14:35;19.20;99.90
18281;DHT22;9266;51.132;17.062;2023-08-31T11:17:03;19.20;99.90
18281;DHT22;9266;51.132;17.062;2023-08-31T11:19:32;19.20;1.00
18281;DHT22;9266;51.132;17.062;2023-08-31T11:22:00;18.90;1.00
18281;DHT22;9266;51.132;17.062;2023-08-31T11:24:28;19.00;1.00
18281;DHT22;9266;51.132;17.062;2023-08-31T11:26:55;19.10;1.00
18281;DHT22;9266;51.132;17.062;2023-08-31T11:29:22;19.40;1.00
18281;DHT22;9266;51.132;17.062;2023-08-31T11:31:49;19.80;1.00
18281;DHT22;9266;51.132;17.062;2023-08-31T11:34:17;20.20;1.00
18281;DHT22;9266;51.132;17.062;2023-08-31T11:36:46;20.50;99.90
18281;DHT22;9266;51.132;17.062;2023-08-31T11:39:13;20.10;99.90
18281;DHT22;9266;51.132;17.062;2023-08-31T11:41:42;20.20;90.90
18281;DHT22;9266;51.132;17.062;2023-08-31T11:44:09;19.70;1.00
18281;DHT22;9266;51.132;17.062;2023-08-31T11:46:37;19.40;82.70
18281;DHT22;9266;51.132;17.062;2023-08-31T11:49:05;19.30;1.00
18281;DHT22;9266;51.132;17.062;2023-08-31T11:51:33;19.20;92.40
18281;DHT22;9266;51.132;17.062;2023-08-31T11:54:02;19.30;99.90
18281;DHT22;9266;51.132;17.062;2023-08-31T11:56:38;19.20;83.70
18281;DHT22;9266;51.132;17.062;2023-08-31T11:59:10;19.10;99.90
18281;DHT22;9266;51.132;17.062;2023-08-31T12:01:39;19.30;99.90
18281;DHT22;9266;51.132;17.062;2023-08-31T12:04:12;19.40;99.90
18281;DHT22;9266;51.132;17.062;2023-08-31T12:06:40;19.30;99.90
18281;DHT22;9266;51.132;17.062;2023-08-31T12:09:09;19.60;99.90
18281;DHT22;9266;51.132;17.062;2023-08-31T12:11:36;19.70;99.90
18281;DHT22;9266;51.132;17.062;2023-08-31T12:14:03;19.50;96.20
18281;DHT22;9266;51.132;17.062;2023-08-31T12:16:34;19.50;90.10
18281;DHT22;9266;51.132;17.062;2023-08-31T12:19:04;19.50;99.90
18281;DHT22;9266;51.132;17.062;2023-08-31T12:21:31;19.80;99.90
18281;DHT22;9266;51.132;17.062;2023-08-31T12:23:58;19.60;1.00
18281;DHT22;9266;51.132;17.062;2023-08-31T12:26:27;19.80;1.00
18281;DHT22;9266;51.132;17.062;2023-08-31T12:28:56;19.80;1.00
18281;DHT22;9266;51.132;17.062;2023-08-31T12:31:23;19.80;1.00
18281;DHT22;9266;51.132;17.062;2023-08-31T12:33:50;19.70;1.00
18281;DHT22;9266;51.132;17.062;2023-08-31T12:36:17;18.40;1.00
18281;DHT22;9266;51.132;17.062;2023-08-31T12:38:44;19.90;1.00
18281;DHT22;9266;51.132;17.062;2023-08-31T12:41:11;20.10;1.00
18281;DHT22;9266;51.132;17.062;2023-08-31T12:43:40;20.20;1.00
18281;DHT22;9266;51.132;17.062;2023-08-31T12:46:07;20.10;1.00
18281;DHT22;9266;51.132;17.062;2023-08-31T12:48:35;20.20;1.00
18281;DHT22;9266;51.132;17.062;2023-08-31T12:51:02;20.30;1.00
18281;DHT22;9266;51.132;17.062;2023-08-31T12:53:29;20.60;1.00
18281;DHT22;9266;51.132;17.062;2023-08-31T12:55:56;20.60;1.00
18281;DHT22;9266;51.132;17.062;2023-08-31T12:58:23;20.50;1.00
18281;DHT22;9266;51.132;17.062;2023-08-31T13:00:51;20.50;1.00
18281;DHT22;9266;51.132;17.062;2023-08-31T13:03:19;20.80;1.00
18281;DHT22;9266;51.132;17.062;2023-08-31T13:05:46;21.00;1.00
18281;DHT22;9266;51.132;17.062;2023-08-31T13:08:14;20.80;99.90
18281;DHT22;9266;51.132;17.062;2023-08-31T13:10:41;20.50;99.90
18281;DHT22;9266;51.132;17.062;2023-08-31T13:13:08;20.60;99.90
18281;DHT22;9266;51.132;17.062;2023-08-31T13:15:35;20.70;99.90
18281;DHT22;9266;51.132;17.062;2023-08-31T13:18:04;21.00;99.90
18281;DHT22;9266;51.132;17.062;2023-08-31T13:20:31;21.10;99.90
18281;DHT22;9266;51.132;17.062;2023-08-31T13:22:58;21.00;99.90
18281;DHT22;9266;51.132;17.062;2023-08-31T13:25:25;20.90;99.90
18281;DHT22;9266;51.132;17.062;2023-08-31T13:27:52;20.80;99.90
18281;DHT22;9266;51.132;17.062;2023-08-31T13:30:19;20.90;99.90
18281;DHT22;9266;51.132;17.062;2023-08-31T13:32:46;21.10;99.90
18281;DHT22;9266;51.132;17.062;2023-08-31T13:35:14;21.40;99.90
18281;DHT22;9266;51.132;17.062;2023-08-31T13:37:41;21.60;99.90
18281;DHT22;9266;51.132;17.062;2023-08-31T13:40:09;21.50;99.90
18281;DHT22;9266;51.132;17.062;2023-08-31T13:42:36;21.60;99.90
18281;DHT22;9266;51.132;17.062;2023-08-31T13:45:06;22.00;99.90
18281;DHT22;9266;51.132;17.062;2023-08-31T13:47:33;22.10;99.90
18281;DHT22;9266;51.132;17.062;2023-08-31T13:50:00;22.10;6.50
18281;DHT22;9266;51.132;17.062;2023-08-31T13:52:30;21.60;1.00
18281;DHT22;9266;51.132;17.062;2023-08-31T13:54:57;21.60;1.00
18281;DHT22;9266;51.132;17.062;2023-08-31T13:57:25;21.60;1.00
18281;DHT22;9266;51.132;17.062;2023-08-31T13:59:51;21.50;1.00
18281;DHT22;9266;51.132;17.062;2023-08-31T14:02:19;21.20;1.00
18281;DHT22;9266;51.132;17.062;2023-08-31T14:04:46;21.10;1.00
18281;DHT22;9266;51.132;17.062;2023-08-31T14:07:13;21.00;1.00
18281;DHT22;9266;51.132;17.062;2023-08-31T14:09:41;20.90;1.00
18281;DHT22;9266;51.132;17.062;2023-08-31T14:12:08;20.90;1.00
18281;DHT22;9266;51.132;17.062;2023-08-31T14:14:35;21.10;1.00
18281;DHT22;9266;51.132;17.062;2023-08-31T14:17:01;21.30;1.00
18281;DHT22;9266;51.132;17.062;2023-08-31T14:19:29;21.40;1.00
18281;DHT22;9266;51.132;17.062;2023-08-31T14:21:56;21.50;1.00
18281;DHT22;9266;51.132;17.062;2023-08-31T14:24:23;21.50;1.00
18281;DHT22;9266;51.132;17.062;2023-08-31T14:26:51;21.70;1.00
18281;DHT22;9266;51.132;17.062;2023-08-31T14:29:19;21.50;1.00
18281;DHT22;9266;51.132;17.062;2023-08-31T14:31:47;21.30;1.00
18281;DHT22;9266;51.132;17.062;2023-08-31T14:34:14;21.30;1.00
18281;DHT22;9266;51.132;17.062;2023-08-31T14:36:41;21.20;1.00
18281;DHT22;9266;51.132;17.062;2023-08-31T14:39:08;21.30;1.00
18281;DHT22;9266;51.132;17.062;2023-08-31T14:41:35;21.40;1.00
18281;DHT22;9266;51.132;17.062;2023-08-31T14:44:04;21.40;1.00
18281;DHT22;9266;51.132;17.062;2023-08-31T14:46:31;21.30;1.00
18281;DHT22;9266;51.132;17.062;2023-08-31T14:48:59;21.30;1.00
18281;DHT22;9266;51.132;17.062;2023-08-31T14:51:26;21.20;1.00
18281;DHT22;9266;51.132;17.062;2023-08-31T14:53:53;21.20;1.00
18281;DHT22;9266;51.132;17.062;2023-08-31T14:56:20;21.10;1.00
18281;DHT22;9266;51.132;17.062;2023-08-31T14:58:48;21.00;1.00
18281;DHT22;9266;51.132;17.062;2023-08-31T15:01:16;20.90;1.00
18281;DHT22;9266;51.132;17.062;2023-08-31T15:03:44;20.80;1.00
18281;DHT22;9266;51.132;17.062;2023-08-31T15:06:11;20.80;1.00
18281;DHT22;9266;51.132;17.062;2023-08-31T15:08:40;20.70;1.00
18281;DHT22;9266;51.132;17.062;2023-08-31T15:11:07;20.60;1.00
18281;DHT22;9266;51.132;17.062;2023-08-31T15:13:35;20.50;1.00
18281;DHT22;9266;51.132;17.062;2023-08-31T15:16:02;20.50;1.00
18281;DHT22;9266;51.132;17.062;2023-08-31T15:18:31;20.60;1.00
18281;DHT22;9266;51.132;17.062;2023-08-31T15:20:58;20.60;1.00
18281;DHT22;9266;51.132;17.062;2023-08-31T15:23:26;20.70;1.00
18281;DHT22;9266;51.132;17.062;2023-08-31T15:25:59;20.60;1.00
18281;DHT22;9266;51.132;17.062;2023-08-31T15:28:26;20.50;1.00
18281;DHT22;9266;51.132;17.062;2023-08-31T15:30:54;20.60;1.00
18281;DHT22;9266;51.132;17.062;2023-08-31T15:33:21;20.60;1.00
18281;DHT22;9266;51.132;17.062;2023-08-31T15:35:49;20.60;1.00
18281;DHT22;9266;51.132;17.062;2023-08-31T15:38:19;20.60;1.00
18281;DHT22;9266;51.132;17.062;2023-08-31T15:40:46;20.50;1.00
18281;DHT22;9266;51.132;17.062;2023-08-31T15:43:14;20.50;1.00
18281;DHT22;9266;51.132;17.062;2023-08-31T15:45:45;20.30;1.00
18281;DHT22;9266;51.132;17.062;2023-08-31T15:48:13;20.20;1.00